createdAt,value
2018-05-12T00:01:03.566Z,12.10
2018-05-12T00:03:30.762Z,11.23
2018-05-12T00:05:57.959Z,13.10
2018-05-12T00:08:25.250Z,19.40
2018-05-12T00:10:52.445Z,13.27
2018-05-12T00:13:19.646Z,15.50
2018-05-12T00:15:46.889Z,16.87
2018-05-12T00:18:14.086Z,14.00
2018-05-12T00:20:41.304Z,12.67
2018-05-12T00:23:08.511Z,12.63
2018-05-12T00:25:35.720Z,16.07
2018-05-12T00:28:02.898Z,17.00
2018-05-12T00:30:30.387Z,16.98
2018-05-12T00:32:57.857Z,14.95
2018-05-12T00:35:25.059Z,16.33
2018-05-12T00:37:52.558Z,14.68
2018-05-12T00:40:19.762Z,21.80
2018-05-12T00:42:46.987Z,16.70
2018-05-12T00:45:14.483Z,15.90
2018-05-12T00:47:41.974Z,18.15
2018-05-12T00:50:09.494Z,17.92
2018-05-12T00:52:36.877Z,13.00
2018-05-12T00:55:04.066Z,16.83
2018-05-12T00:57:31.277Z,15.33
2018-05-12T00:59:58.477Z,17.13
2018-05-12T01:02:25.678Z,12.27
2018-05-12T01:04:52.863Z,13.53
2018-05-12T01:07:20.062Z,13.03
2018-05-12T01:09:47.281Z,10.07
2018-05-12T01:12:14.477Z,12.60
2018-05-12T01:14:41.682Z,11.83
2018-05-12T01:17:08.865Z,10.33
2018-05-12T01:19:36.119Z,8.53
2018-05-12T01:22:03.298Z,9.50
2018-05-12T01:24:30.504Z,9.03
2018-05-12T01:26:57.682Z,8.47
2018-05-12T01:29:24.913Z,9.27
2018-05-12T01:31:52.113Z,8.40
2018-05-12T01:34:19.311Z,8.40
2018-05-12T01:36:46.494Z,7.47
2018-05-12T01:39:13.687Z,8.13
2018-05-12T01:41:41.170Z,7.68
2018-05-12T01:44:08.341Z,6.63
2018-05-12T01:46:35.547Z,7.20
2018-05-12T01:49:02.748Z,8.53
2018-05-12T01:51:29.951Z,8.97
2018-05-12T01:53:57.147Z,10.00
2018-05-12T01:56:24.359Z,9.97
2018-05-12T01:58:51.560Z,7.33
2018-05-12T02:01:18.754Z,7.27
2018-05-12T02:03:45.945Z,7.00
2018-05-12T02:06:13.131Z,8.87
2018-05-12T02:08:40.329Z,6.97
2018-05-12T02:11:07.519Z,5.63
2018-05-12T02:13:34.702Z,5.30
2018-05-12T02:16:01.894Z,5.77
2018-05-12T02:18:29.074Z,9.03
2018-05-12T02:20:56.282Z,9.67
2018-05-12T02:23:23.472Z,14.60
2018-05-12T02:25:50.662Z,9.60
2018-05-12T02:28:17.862Z,8.20
2018-05-12T02:30:45.055Z,8.83
2018-05-12T02:33:12.262Z,8.00
2018-05-12T02:35:39.460Z,9.17
2018-05-12T02:38:06.683Z,9.57
2018-05-12T02:40:33.860Z,9.37
2018-05-12T02:43:01.055Z,9.77
2018-05-12T02:45:28.345Z,8.73
2018-05-12T02:47:55.544Z,8.90
2018-05-12T02:50:22.740Z,6.87
2018-05-12T02:52:49.941Z,8.70
2018-05-12T02:55:17.114Z,8.37
2018-05-12T02:57:44.334Z,10.50
2018-05-12T03:00:11.546Z,9.80
2018-05-12T03:02:38.741Z,11.53
2018-05-12T03:05:05.936Z,9.83
2018-05-12T03:07:33.117Z,6.20
2018-05-12T03:10:00.323Z,6.60
2018-05-12T03:12:27.516Z,6.70
2018-05-12T03:14:54.706Z,7.27
2018-05-12T03:17:21.889Z,5.43
2018-05-12T03:19:49.081Z,6.87
2018-05-12T03:22:16.274Z,9.30
2018-05-12T03:24:43.462Z,6.83
2018-05-12T03:27:10.670Z,7.93
2018-05-12T03:29:37.844Z,8.77
2018-05-12T03:32:05.049Z,10.80
2018-05-12T03:34:32.229Z,7.90
2018-05-12T03:36:59.418Z,7.70
2018-05-12T03:39:26.621Z,5.00
2018-05-12T03:41:53.799Z,4.80
2018-05-12T03:44:21.001Z,5.70
2018-05-12T03:46:48.185Z,5.53
2018-05-12T03:49:15.383Z,6.33
2018-05-12T03:51:42.579Z,6.80
2018-05-12T03:54:09.770Z,6.23
2018-05-12T03:56:36.969Z,4.83
2018-05-12T03:59:04.161Z,9.07
2018-05-12T04:01:31.360Z,4.60
2018-05-12T04:03:58.529Z,4.80
2018-05-12T04:06:31.310Z,4.80
2018-05-12T04:09:04.262Z,4.50
2018-05-12T04:11:37.224Z,4.77
2018-05-12T04:14:04.402Z,5.77
2018-05-12T04:16:31.627Z,4.70
2018-05-12T04:18:58.808Z,5.40
2018-05-12T04:21:25.999Z,4.43
2018-05-12T04:23:53.186Z,4.40
2018-05-12T04:26:20.378Z,4.90
2018-05-12T04:28:47.568Z,5.60
2018-05-12T04:31:14.756Z,4.83
2018-05-12T04:33:41.950Z,4.17
2018-05-12T04:36:09.133Z,4.60
2018-05-12T04:38:36.339Z,4.17
2018-05-12T04:41:03.530Z,7.47
2018-05-12T04:43:30.723Z,4.03
2018-05-12T04:45:57.918Z,10.93
2018-05-12T04:48:25.122Z,4.10
2018-05-12T04:50:52.309Z,4.80
2018-05-12T04:53:19.514Z,4.90
2018-05-12T04:55:46.702Z,4.27
2018-05-12T04:58:13.893Z,3.63
2018-05-12T05:00:41.106Z,4.10
2018-05-12T05:03:08.328Z,4.37
2018-05-12T05:05:35.523Z,3.73
2018-05-12T05:08:02.727Z,6.20
2018-05-12T05:10:29.916Z,4.40
2018-05-12T05:12:57.106Z,7.17
2018-05-12T05:15:24.327Z,6.00
2018-05-12T05:17:51.714Z,5.77
2018-05-12T05:20:18.913Z,5.83
2018-05-12T05:22:46.106Z,4.87
2018-05-12T05:25:13.290Z,5.47
2018-05-12T05:27:40.491Z,4.67
2018-05-12T05:30:07.680Z,4.10
2018-05-12T05:32:34.899Z,3.80
2018-05-12T05:35:02.090Z,3.63
2018-05-12T05:37:29.286Z,4.10
2018-05-12T05:39:56.466Z,4.13
2018-05-12T05:42:23.657Z,3.97
2018-05-12T05:44:50.859Z,6.17
2018-05-12T05:47:18.034Z,5.20
2018-05-12T05:49:45.235Z,3.30
2018-05-12T05:52:12.419Z,5.70
2018-05-12T05:54:39.612Z,3.77
2018-05-12T05:57:06.790Z,3.23
2018-05-12T05:59:34.001Z,3.40
2018-05-12T06:02:01.198Z,3.67
2018-05-12T06:04:28.391Z,7.77
2018-05-12T06:06:55.728Z,3.50
2018-05-12T06:09:23.009Z,3.30
2018-05-12T06:11:50.212Z,4.23
2018-05-12T06:14:17.438Z,14.00
2018-05-12T06:16:44.825Z,10.63
2018-05-12T06:19:12.015Z,4.73
2018-05-12T06:21:39.189Z,3.47
2018-05-12T06:24:06.400Z,3.30
2018-05-12T06:26:33.590Z,3.30
2018-05-12T06:29:00.782Z,3.20
2018-05-12T06:31:27.971Z,4.53
2018-05-12T06:33:55.158Z,3.30
2018-05-12T06:36:22.380Z,3.20
2018-05-12T06:38:49.678Z,3.57
2018-05-12T06:41:16.887Z,17.33
2018-05-12T06:43:44.081Z,5.93
2018-05-12T06:46:11.289Z,3.10
2018-05-12T06:48:38.477Z,5.53
2018-05-12T06:51:05.674Z,3.60
2018-05-12T06:53:32.861Z,4.20
2018-05-12T06:56:00.057Z,5.30
2018-05-12T06:58:27.239Z,2.73
2018-05-12T07:00:54.446Z,3.70
2018-05-12T07:03:21.645Z,2.97
2018-05-12T07:05:48.834Z,4.73
2018-05-12T07:08:16.149Z,3.33
2018-05-12T07:10:43.353Z,3.30
2018-05-12T07:13:10.574Z,3.33
2018-05-12T07:15:37.770Z,2.63
2018-05-12T07:18:04.978Z,4.57
2018-05-12T07:20:32.174Z,4.43
2018-05-12T07:22:59.357Z,4.33
2018-05-12T07:25:26.581Z,2.70
2018-05-12T07:27:53.773Z,2.83
2018-05-12T07:30:20.980Z,3.60
2018-05-12T07:32:48.174Z,5.70
2018-05-12T07:35:15.362Z,3.07
2018-05-12T07:37:42.587Z,3.83
2018-05-12T07:40:09.770Z,4.07
2018-05-12T07:42:36.975Z,3.10
2018-05-12T07:45:04.172Z,5.13
2018-05-12T07:47:31.562Z,4.77
2018-05-12T07:49:58.770Z,3.60
2018-05-12T07:52:25.954Z,3.00
2018-05-12T07:54:53.151Z,2.87
2018-05-12T07:57:20.362Z,3.27
2018-05-12T07:59:47.552Z,3.80
2018-05-12T08:02:14.738Z,9.67
2018-05-12T08:04:41.937Z,3.70
2018-05-12T08:07:09.145Z,4.30
2018-05-12T08:09:36.323Z,6.67
2018-05-12T08:12:03.523Z,6.37
2018-05-12T08:14:30.703Z,8.00
2018-05-12T08:16:57.908Z,8.63
2018-05-12T08:19:25.090Z,7.13
2018-05-12T08:21:52.280Z,7.33
2018-05-12T08:24:19.490Z,8.37
2018-05-12T08:26:46.737Z,6.90
2018-05-12T08:29:14.061Z,7.20
2018-05-12T08:31:41.247Z,7.20
2018-05-12T08:34:08.463Z,9.70
2018-05-12T08:36:35.649Z,8.23
2018-05-12T08:39:02.882Z,7.00
2018-05-12T08:41:30.066Z,7.47
2018-05-12T08:43:57.271Z,11.10
2018-05-12T08:46:24.471Z,8.17
2018-05-12T08:48:51.678Z,9.43
2018-05-12T08:51:18.871Z,10.20
2018-05-12T08:53:46.062Z,12.57
2018-05-12T08:56:13.279Z,10.83
2018-05-12T08:58:40.483Z,11.83
2018-05-12T09:01:07.710Z,9.30
2018-05-12T09:03:34.927Z,14.77
2018-05-12T09:06:02.167Z,11.77
2018-05-12T09:08:29.365Z,10.20
2018-05-12T09:10:56.581Z,8.97
2018-05-12T09:13:23.613Z,12.23
2018-05-12T09:15:50.835Z,12.00
2018-05-12T09:18:18.034Z,13.43
2018-05-12T09:20:45.257Z,11.63
2018-05-12T09:23:12.471Z,13.30
2018-05-12T09:25:39.516Z,13.50
2018-05-12T09:28:06.849Z,10.57
2018-05-12T09:30:34.043Z,9.47
2018-05-12T09:33:01.235Z,9.70
2018-05-12T09:35:28.443Z,14.23
2018-05-12T09:37:55.675Z,10.10
2018-05-12T09:40:23.038Z,10.40
2018-05-12T09:42:50.247Z,14.80
2018-05-12T09:45:17.475Z,12.70
2018-05-12T09:47:44.672Z,10.73
2018-05-12T09:50:11.870Z,10.73
2018-05-12T09:52:39.076Z,11.57
2018-05-12T09:55:06.299Z,10.80
2018-05-12T09:57:33.603Z,11.47
2018-05-12T10:00:00.835Z,13.03
2018-05-12T10:02:28.050Z,9.33
2018-05-12T10:04:55.269Z,13.80
2018-05-12T10:07:22.517Z,13.30
2018-05-12T10:09:49.701Z,12.37
2018-05-12T10:12:16.929Z,10.00
2018-05-12T10:14:44.139Z,9.40
2018-05-12T10:17:11.377Z,10.80
2018-05-12T10:19:38.618Z,11.33
2018-05-12T10:22:05.864Z,11.23
2018-05-12T10:24:33.277Z,13.03
2018-05-12T10:27:00.507Z,11.43
2018-05-12T10:29:27.741Z,9.50
2018-05-12T10:31:54.955Z,9.30
2018-05-12T10:34:22.186Z,12.57
2018-05-12T10:36:49.384Z,15.33
2018-05-12T10:39:16.576Z,13.73
2018-05-12T10:41:43.783Z,12.97
2018-05-12T10:44:10.975Z,12.63
2018-05-12T10:46:38.188Z,11.07
2018-05-12T10:49:05.391Z,9.53
2018-05-12T10:51:32.594Z,12.93
2018-05-12T10:53:59.796Z,8.07
2018-05-12T10:56:27.023Z,9.83
2018-05-12T10:58:54.222Z,11.57
2018-05-12T11:01:21.495Z,11.30
2018-05-12T11:03:48.698Z,9.97
2018-05-12T11:06:15.906Z,10.77
2018-05-12T11:08:43.099Z,13.87
2018-05-12T11:11:10.311Z,11.37
2018-05-12T11:13:37.500Z,8.03
2018-05-12T11:16:04.833Z,8.63
2018-05-12T11:18:32.118Z,7.90
2018-05-12T11:20:59.308Z,7.50
2018-05-12T11:23:26.517Z,13.17
2018-05-12T11:25:53.770Z,11.43
2018-05-12T11:28:20.964Z,8.93
2018-05-12T11:30:48.221Z,6.27
2018-05-12T11:33:15.445Z,6.97
2018-05-12T11:35:42.729Z,7.87
2018-05-12T11:38:09.910Z,8.80
2018-05-12T11:40:37.145Z,10.60
2018-05-12T11:43:04.344Z,10.43
2018-05-12T11:45:31.557Z,8.30
2018-05-12T11:47:58.809Z,7.93
2018-05-12T11:50:26.019Z,11.70
2018-05-12T11:52:53.251Z,12.10
2018-05-12T11:55:20.440Z,12.70
2018-05-12T11:57:47.645Z,9.53
2018-05-12T12:00:14.850Z,8.53
2018-05-12T12:02:42.057Z,9.77
2018-05-12T12:05:09.245Z,9.27
2018-05-12T12:07:36.477Z,23.20
2018-05-12T12:10:03.791Z,9.33
2018-05-12T12:12:30.973Z,8.13
2018-05-12T12:14:58.181Z,10.00
2018-05-12T12:17:25.163Z,12.00
2018-05-12T12:19:52.398Z,11.07
2018-05-12T12:22:19.589Z,8.03
2018-05-12T12:24:46.823Z,8.70
2018-05-12T12:27:14.023Z,9.67
2018-05-12T12:29:41.249Z,7.60
2018-05-12T12:32:08.451Z,7.13
2018-05-12T12:34:35.648Z,9.40
2018-05-12T12:37:02.864Z,8.63
2018-05-12T12:39:30.070Z,11.67
2018-05-12T12:41:57.306Z,9.00
2018-05-12T12:44:24.508Z,10.10
2018-05-12T12:46:51.726Z,11.83
2018-05-12T12:49:18.925Z,10.40
2018-05-12T12:51:46.164Z,7.03
2018-05-12T12:54:13.546Z,8.90
2018-05-12T12:56:40.756Z,7.23
2018-05-12T12:59:07.954Z,7.93
2018-05-12T13:01:35.166Z,6.37
2018-05-12T13:04:02.464Z,6.73
2018-05-12T13:06:29.701Z,8.37
2018-05-12T13:08:56.947Z,7.20
2018-05-12T13:11:24.162Z,8.40
2018-05-12T13:13:51.372Z,5.97
2018-05-12T13:16:18.570Z,6.70
2018-05-12T13:18:45.785Z,6.33
2018-05-12T13:21:12.968Z,8.80
2018-05-12T13:23:40.185Z,7.53
2018-05-12T13:26:07.377Z,8.23
2018-05-12T13:28:34.594Z,7.10
2018-05-12T13:31:01.801Z,6.90
2018-05-12T13:33:29.006Z,6.23
2018-05-12T13:35:56.399Z,6.53
2018-05-12T13:38:23.674Z,6.93
2018-05-12T13:40:50.864Z,8.27
2018-05-12T13:43:18.057Z,6.43
2018-05-12T13:45:45.327Z,4.50
2018-05-12T13:48:12.520Z,7.27
2018-05-12T13:50:39.777Z,14.33
2018-05-12T13:53:07.035Z,5.30
2018-05-12T13:55:34.260Z,5.50
2018-05-12T13:58:01.711Z,5.90
2018-05-12T14:00:28.914Z,6.30
2018-05-12T14:02:55.886Z,6.20
2018-05-12T14:05:23.081Z,4.37
2018-05-12T14:07:50.353Z,9.00
2018-05-12T14:10:17.557Z,5.27
2018-05-12T14:12:44.756Z,4.37
2018-05-12T14:15:11.951Z,4.50
2018-05-12T14:17:38.923Z,5.87
2018-05-12T14:20:06.111Z,7.43
2018-05-12T14:22:33.310Z,6.10
2018-05-12T14:25:00.540Z,7.77
2018-05-12T14:27:27.731Z,4.87
2018-05-12T14:29:54.920Z,5.07
2018-05-12T14:32:22.152Z,5.07
2018-05-12T14:34:49.358Z,7.80
2018-05-12T14:37:16.683Z,4.10
2018-05-12T14:39:43.869Z,9.30
2018-05-12T14:42:11.074Z,5.23
2018-05-12T14:44:38.293Z,4.70
2018-05-12T14:47:05.496Z,5.00
2018-05-12T14:49:32.748Z,5.10
2018-05-12T14:52:00.009Z,4.93
2018-05-12T14:54:27.225Z,9.37
2018-05-12T14:56:54.429Z,4.47
2018-05-12T14:59:21.647Z,4.20
2018-05-12T15:01:48.834Z,4.17
2018-05-12T15:04:16.068Z,4.33
2018-05-12T15:06:43.302Z,4.60
2018-05-12T15:09:10.682Z,4.20
2018-05-12T15:11:37.903Z,5.80
2018-05-12T15:14:05.087Z,4.80
2018-05-12T15:16:32.304Z,4.53
2018-05-12T15:18:59.486Z,6.97
2018-05-12T15:21:26.729Z,5.20
2018-05-12T15:23:54.103Z,6.67
2018-05-12T15:26:21.372Z,8.03
2018-05-12T15:28:48.584Z,4.17
2018-05-12T15:31:15.780Z,4.70
2018-05-12T15:33:43.034Z,4.77
2018-05-12T15:36:10.249Z,5.23
2018-05-12T15:38:37.618Z,4.50
2018-05-12T15:41:04.826Z,6.30
2018-05-12T15:43:32.159Z,9.40
2018-05-12T15:45:59.538Z,6.13
2018-05-12T15:48:26.733Z,4.63
2018-05-12T15:50:53.946Z,5.43
2018-05-12T15:53:21.140Z,6.80
2018-05-12T15:55:48.344Z,3.57
2018-05-12T15:58:15.537Z,4.03
2018-05-12T16:00:42.787Z,6.30
2018-05-12T16:03:10.147Z,4.83
2018-05-12T16:05:37.461Z,5.53
2018-05-12T16:08:04.659Z,6.33
2018-05-12T16:10:31.851Z,6.47
2018-05-12T16:12:59.058Z,5.50
2018-05-12T16:15:26.265Z,11.10
2018-05-12T16:17:53.506Z,6.40
2018-05-12T16:20:20.760Z,3.30
2018-05-12T16:22:48.135Z,5.03
2018-05-12T16:25:15.348Z,5.00
2018-05-12T16:27:42.594Z,3.80
2018-05-12T16:30:09.951Z,5.80
2018-05-12T16:32:37.179Z,4.50
2018-05-12T16:35:04.390Z,9.60
2018-05-12T16:37:31.597Z,7.40
2018-05-12T16:39:58.832Z,3.50
2018-05-12T16:42:26.031Z,8.40
2018-05-12T16:44:53.252Z,4.20
2018-05-12T16:47:20.434Z,3.60
2018-05-12T16:49:47.650Z,4.77
2018-05-12T16:52:14.852Z,4.37
2018-05-12T16:54:42.090Z,4.13
2018-05-12T16:57:09.314Z,4.40
2018-05-12T16:59:36.518Z,3.60
2018-05-12T17:02:03.719Z,4.37
2018-05-12T17:04:30.952Z,3.50
2018-05-12T17:06:58.168Z,5.50
2018-05-12T17:09:25.396Z,5.60
2018-05-12T17:11:52.592Z,3.70
2018-05-12T17:14:19.797Z,5.87
2018-05-12T17:16:47.000Z,3.63
2018-05-12T17:19:14.212Z,3.20
2018-05-12T17:21:41.418Z,3.60
2018-05-12T17:24:08.627Z,5.20
2018-05-12T17:26:35.847Z,5.30
2018-05-12T17:29:03.058Z,5.40
2018-05-12T17:31:30.256Z,4.60
2018-05-12T17:33:57.554Z,3.63
2018-05-12T17:36:24.772Z,7.63
2018-05-12T17:38:51.966Z,7.00
2018-05-12T17:41:19.175Z,4.20
2018-05-12T17:43:46.394Z,5.17
2018-05-12T17:46:13.607Z,4.90
2018-05-12T17:48:40.987Z,8.17
2018-05-12T17:51:08.179Z,5.10
2018-05-12T17:53:35.386Z,6.57
2018-05-12T17:56:02.605Z,4.70
2018-05-12T17:58:29.808Z,5.07
2018-05-12T18:00:57.062Z,6.90
2018-05-12T18:03:24.258Z,4.40
2018-05-12T18:05:51.496Z,4.90
2018-05-12T18:08:18.708Z,5.10
2018-05-12T18:10:45.935Z,4.70
2018-05-12T18:13:13.209Z,3.10
2018-05-12T18:15:40.715Z,9.70
2018-05-12T18:18:07.947Z,5.20
2018-05-12T18:20:35.151Z,5.53
2018-05-12T18:23:02.446Z,3.50
2018-05-12T18:25:29.798Z,4.73
2018-05-12T18:27:57.242Z,8.87
2018-05-12T18:30:24.426Z,3.90
2018-05-12T18:32:51.629Z,3.90
2018-05-12T18:35:18.908Z,3.50
2018-05-12T18:37:46.130Z,3.37
2018-05-12T18:40:13.355Z,15.27
2018-05-12T18:42:40.572Z,4.37
2018-05-12T18:45:07.835Z,4.10
2018-05-12T18:47:35.151Z,5.73
2018-05-12T18:50:02.387Z,6.30
2018-05-12T18:52:29.599Z,4.03
2018-05-12T18:54:56.826Z,4.53
2018-05-12T18:57:24.040Z,8.53
2018-05-12T18:59:51.257Z,5.83
2018-05-12T19:02:18.447Z,3.80
2018-05-12T19:04:45.679Z,4.43
2018-05-12T19:07:12.921Z,7.33
2018-05-12T19:09:40.135Z,4.40
2018-05-12T19:12:07.370Z,4.93
2018-05-12T19:14:34.661Z,4.50
2018-05-12T19:17:01.877Z,5.03
2018-05-12T19:19:29.285Z,4.93
2018-05-12T19:21:56.505Z,3.80
2018-05-12T19:24:23.708Z,5.20
2018-05-12T19:26:50.937Z,6.37
2018-05-12T19:29:18.285Z,4.53
2018-05-12T19:31:45.487Z,4.27
2018-05-12T19:34:12.800Z,3.43
2018-05-12T19:36:40.032Z,4.67
2018-05-12T19:39:07.242Z,4.50
2018-05-12T19:41:34.430Z,6.87
2018-05-12T19:44:03.383Z,6.77
2018-05-12T19:46:30.661Z,3.57
2018-05-12T19:48:57.873Z,4.20
2018-05-12T19:51:25.067Z,5.17
2018-05-12T19:53:52.283Z,4.50
2018-05-12T19:56:19.499Z,4.70
2018-05-12T19:58:46.714Z,5.70
2018-05-12T20:01:13.990Z,4.83
2018-05-12T20:03:41.355Z,4.30
2018-05-12T20:06:08.711Z,3.80
2018-05-12T20:08:35.918Z,6.00
2018-05-12T20:11:03.128Z,4.43
2018-05-12T20:13:30.466Z,7.20
2018-05-12T20:15:57.696Z,4.17
2018-05-12T20:18:25.106Z,4.50
2018-05-12T20:20:52.305Z,5.50
2018-05-12T20:23:19.534Z,4.47
2018-05-12T20:25:46.764Z,4.03
2018-05-12T20:28:14.155Z,6.17
2018-05-12T20:30:41.367Z,4.60
2018-05-12T20:33:08.571Z,4.73
2018-05-12T20:35:35.794Z,3.90
2018-05-12T20:38:02.782Z,6.33
2018-05-12T20:40:30.196Z,4.03
2018-05-12T20:42:57.407Z,4.53
2018-05-12T20:45:24.605Z,6.00
2018-05-12T20:47:51.811Z,3.60
2018-05-12T20:50:19.032Z,4.43
2018-05-12T20:52:46.256Z,5.40
2018-05-12T20:55:13.443Z,8.63
2018-05-12T20:57:40.633Z,3.70
2018-05-12T21:00:07.840Z,4.47
2018-05-12T21:02:35.072Z,5.80
2018-05-12T21:05:02.296Z,6.57
2018-05-12T21:07:29.614Z,4.97
2018-05-12T21:09:56.815Z,3.90
2018-05-12T21:12:24.000Z,6.00
2018-05-12T21:14:51.242Z,3.60
2018-05-12T21:17:18.460Z,3.83
2018-05-12T21:19:45.743Z,5.90
2018-05-12T21:22:12.939Z,4.50
2018-05-12T21:24:40.148Z,7.13
2018-05-12T21:27:07.358Z,4.93
2018-05-12T21:29:34.646Z,4.83
2018-05-12T21:32:01.974Z,3.90
2018-05-12T21:34:29.174Z,4.50
2018-05-12T21:36:56.363Z,4.13
2018-05-12T21:39:23.582Z,4.20
2018-05-12T21:41:50.812Z,4.30
2018-05-12T21:44:17.995Z,3.73
2018-05-12T21:46:45.209Z,4.87
2018-05-12T21:49:12.383Z,3.77
2018-05-12T21:51:39.600Z,3.47
2018-05-12T21:54:06.779Z,4.37
2018-05-12T21:56:33.990Z,7.60
2018-05-12T21:59:01.235Z,3.73
2018-05-12T22:01:28.569Z,7.77
2018-05-12T22:03:55.793Z,10.43
2018-05-12T22:06:23.011Z,3.83
2018-05-12T22:08:50.271Z,6.70
2018-05-12T22:11:17.447Z,5.93
2018-05-12T22:13:44.655Z,10.80
2018-05-12T22:16:11.835Z,7.03
2018-05-12T22:18:39.120Z,4.60
2018-05-12T22:21:06.425Z,5.87
2018-05-12T22:23:33.709Z,4.10
2018-05-12T22:26:00.899Z,4.50
2018-05-12T22:28:28.083Z,6.03
2018-05-12T22:30:55.291Z,5.77
2018-05-12T22:33:22.499Z,6.73
2018-05-12T22:35:49.707Z,7.17
2018-05-12T22:38:16.887Z,8.97
2018-05-12T22:40:44.710Z,5.30
2018-05-12T22:43:11.982Z,3.97
2018-05-12T22:45:39.192Z,4.03
2018-05-12T22:48:06.422Z,5.23
2018-05-12T22:50:33.643Z,5.77
2018-05-12T22:53:00.871Z,4.70
2018-05-12T22:55:28.064Z,3.90
2018-05-12T22:57:55.258Z,3.90
2018-05-12T23:00:22.962Z,4.97
2018-05-12T23:02:50.184Z,4.37
2018-05-12T23:05:17.386Z,4.50
2018-05-12T23:07:44.623Z,5.17
2018-05-12T23:10:11.896Z,5.00
2018-05-12T23:12:39.272Z,5.63
2018-05-12T23:15:06.531Z,6.37
2018-05-12T23:17:33.732Z,5.53
2018-05-12T23:20:00.936Z,6.07
2018-05-12T23:22:28.128Z,5.27
2018-05-12T23:24:55.411Z,5.93
2018-05-12T23:27:22.749Z,6.10
2018-05-12T23:29:49.983Z,7.30
2018-05-12T23:32:17.262Z,9.30
2018-05-12T23:34:44.450Z,5.30
2018-05-12T23:37:11.670Z,5.17
2018-05-12T23:39:38.924Z,6.47
2018-05-12T23:42:06.098Z,7.00
2018-05-12T23:44:33.326Z,6.47
2018-05-12T23:47:00.522Z,5.80
2018-05-12T23:49:27.717Z,5.83
2018-05-12T23:51:54.961Z,5.93
2018-05-12T23:54:22.319Z,6.00
2018-05-12T23:56:49.519Z,6.27
2018-05-12T23:59:16.707Z,6.60
